FNBG/BUG METAR and TAF weather

Enter ICAO airport designator
Station Type Date Time Source
FNBG METAR 2020/08/30 14:00 UTC NOAA

FNBG 301400Z 27004KT 9999 BKN020 23/17 Q1013


Station Type Date Time Source
FNBG Decoded METAR 2020/08/30 14:00 UTC NOAA

Monbaca Benguela , Angola (FNBG) 12-35S 013-25E 4M
Aug 30, 2020 - 10:00 AM EDT / 2020.08.30 1400 UTC
Wind: from the W (270 degrees) at 5 MPH (4 KT):0
Visibility: greater than 7 mile(s):0
Sky conditions: mostly cloudy
Temperature: 73 F (23 C)
Dew Point: 62 F (17 C)
Relative Humidity: 68%
Pressure (altimeter): 29.91 in. Hg (1013 hPa)
ob: FNBG 301400Z 27004KT 9999 BKN020 23/17 Q1013
cycle: 14

Station Type Date Time Source
FNBG TAF 2020/11/25 12:50 UTC NOAA

TAF FNBG 251050Z 2512/2524 30007KT 9999 FEW014 SCT022
TEMPO 2520/2524 23005KT 5000 -RA BKN018 OVC030

Example: see airport list